Time,TemperatureF,DewpointF,PressureIn,WindDirection,WindDirectionDegrees,WindSpeedMPH,WindSpeedGustMPH,Humidity,HourlyPrecipIn,Conditions,Clouds,dailyrainin,SoftwareType,DateUTC
2013-01-26 00:03:00,20.0,16.0,30.14,WNW,302,2.0,2.0,83,0.00,,,0.00,,2013-01-26 05:03:00,
2013-01-26 00:12:00,20.0,16.0,30.14,WNW,302,2.0,2.0,83,0.00,,,0.00,,2013-01-26 05:12:00,
2013-01-26 00:23:00,19.0,15.0,30.15,NW,311,0.0,2.0,84,0.00,,,0.00,,2013-01-26 05:23:00,
2013-01-26 00:33:00,20.0,16.0,30.16,NW,315,1.0,2.0,85,0.00,,,0.00,,2013-01-26 05:33:00,
2013-01-26 00:41:00,20.0,16.0,30.16,NW,315,1.0,2.0,85,0.00,,,0.00,,2013-01-26 05:41:00,
2013-01-26 00:52:00,22.0,17.0,30.16,NNW,335,5.0,7.0,82,0.00,,,0.00,,2013-01-26 05:52:00,
2013-01-26 01:02:00,23.0,17.0,30.18,NNW,328,5.0,8.0,76,0.00,,,0.00,,2013-01-26 06:02:00,
2013-01-26 01:12:00,23.0,17.0,30.18,NNW,328,5.0,8.0,76,0.00,,,0.00,,2013-01-26 06:12:00,
2013-01-26 01:21:00,23.0,16.0,30.18,North,351,4.0,7.0,75,0.00,,,0.00,,2013-01-26 06:21:00,
2013-01-26 01:31:00,23.0,16.0,30.19,NNW,338,4.0,7.0,75,0.00,,,0.00,,2013-01-26 06:31:00,
2013-01-26 01:41:00,23.0,16.0,30.19,NNW,338,4.0,7.0,75,0.00,,,0.00,,2013-01-26 06:41:00,
2013-01-26 01:52:00,23.0,16.0,30.19,NW,321,5.0,10.0,73,0.00,,,0.00,,2013-01-26 06:52:00,
2013-01-26 02:01:00,23.0,15.0,30.19,NW,321,7.0,12.0,72,0.00,,,0.00,,2013-01-26 07:01:00,
2013-01-26 02:12:00,23.0,15.0,30.19,NW,321,7.0,12.0,72,0.00,,,0.00,,2013-01-26 07:12:00,
2013-01-26 02:21:00,23.0,15.0,30.19,NW,321,7.0,12.0,72,0.00,,,0.00,,2013-01-26 07:21:00,
2013-01-26 02:33:00,22.0,14.0,30.21,NNW,335,6.0,11.0,71,0.00,,,0.00,,2013-01-26 07:33:00,
2013-01-26 02:41:00,22.0,14.0,30.21,NNW,335,6.0,11.0,71,0.00,,,0.00,,2013-01-26 07:41:00,
2013-01-26 02:52:00,22.0,14.0,30.21,NNW,340,6.0,12.0,71,0.00,,,0.00,,2013-01-26 07:52:00,
2013-01-26 03:02:00,22.0,14.0,30.22,NNW,339,7.0,11.0,71,0.00,,,0.00,,2013-01-26 08:02:00,
2013-01-26 03:11:00,22.0,14.0,30.22,NNW,339,7.0,11.0,71,0.00,,,0.00,,2013-01-26 08:11:00,
2013-01-26 03:21:00,21.0,13.0,30.21,NNW,334,7.0,11.0,72,0.00,,,0.00,,2013-01-26 08:21:00,
2013-01-26 03:31:00,21.0,13.0,30.21,North,350,8.0,12.0,71,0.00,,,0.00,,2013-01-26 08:31:00,
2013-01-26 03:42:00,21.0,13.0,30.21,North,350,8.0,12.0,71,0.00,,,0.00,,2013-01-26 08:42:00,
2013-01-26 03:54:00,20.0,13.0,30.23,NNW,330,5.0,8.0,73,0.00,,,0.00,,2013-01-26 08:54:00,
2013-01-26 04:02:00,19.0,12.0,30.24,NNW,341,7.0,12.0,74,0.00,,,0.00,,2013-01-26 09:02:00,
2013-01-26 04:11:00,19.0,12.0,30.24,NNW,341,7.0,12.0,74,0.00,,,0.00,,2013-01-26 09:11:00,
2013-01-26 04:22:00,18.0,11.0,30.24,NNW,340,5.0,10.0,75,0.00,,,0.00,,2013-01-26 09:22:00,
2013-01-26 04:31:00,17.0,10.0,30.24,NNW,332,4.0,11.0,75,0.00,,,0.00,,2013-01-26 09:31:00,
2013-01-26 04:42:00,17.0,10.0,30.24,NNW,332,4.0,11.0,75,0.00,,,0.00,,2013-01-26 09:42:00,
2013-01-26 04:52:00,16.0,10.0,30.26,NNW,330,3.0,5.0,77,0.00,,,0.00,,2013-01-26 09:52:00,
2013-01-26 05:01:00,16.0,10.0,30.26,NNW,342,3.0,9.0,78,0.00,,,0.00,,2013-01-26 10:01:00,
2013-01-26 05:11:00,16.0,10.0,30.26,NNW,342,3.0,9.0,78,0.00,,,0.00,,2013-01-26 10:11:00,
2013-01-26 05:21:00,15.0,9.0,30.26,North,349,3.0,4.0,78,0.00,,,0.00,,2013-01-26 10:21:00,
2013-01-26 05:31:00,14.0,9.0,30.26,NNW,338,3.0,6.0,80,0.00,,,0.00,,2013-01-26 10:31:00,
2013-01-26 05:42:00,14.0,9.0,30.26,NNW,338,3.0,6.0,80,0.00,,,0.00,,2013-01-26 10:42:00,
2013-01-26 05:52:00,14.0,9.0,30.27,NNW,330,3.0,6.0,80,0.00,,,0.00,,2013-01-26 10:52:00,
2013-01-26 06:01:00,13.0,8.0,30.27,NNW,328,3.0,4.0,80,0.00,,,0.00,,2013-01-26 11:01:00,
2013-01-26 06:12:00,13.0,8.0,30.27,NNW,328,3.0,4.0,80,0.00,,,0.00,,2013-01-26 11:12:00,
2013-01-26 06:22:00,13.0,8.0,30.28,NNW,336,2.0,4.0,81,0.00,,,0.00,,2013-01-26 11:22:00,
2013-01-26 06:32:00,12.0,7.0,30.29,WNW,300,1.0,2.0,81,0.00,,,0.00,,2013-01-26 11:32:00,
2013-01-26 06:42:00,12.0,7.0,30.29,WNW,300,1.0,2.0,81,0.00,,,0.00,,2013-01-26 11:42:00,
2013-01-26 06:52:00,12.0,8.0,30.29,NW,304,1.0,2.0,82,0.00,,,0.00,,2013-01-26 11:52:00,
2013-01-26 07:02:00,11.0,7.0,30.30,NW,317,0.0,3.0,83,0.00,,,0.00,,2013-01-26 12:02:00,
2013-01-26 07:12:00,11.0,7.0,30.30,NW,317,0.0,3.0,83,0.00,,,0.00,,2013-01-26 12:12:00,
2013-01-26 07:22:00,11.0,7.0,30.31,NW,317,0.0,1.0,84,0.00,,,0.00,,2013-01-26 12:22:00,
2013-01-26 07:33:00,10.0,6.0,30.32,West,281,0.0,1.0,85,0.00,,,0.00,,2013-01-26 12:33:00,
2013-01-26 07:42:00,10.0,6.0,30.32,West,281,0.0,1.0,85,0.00,,,0.00,,2013-01-26 12:42:00,
2013-01-26 07:53:00,11.0,7.0,30.32,West,259,0.0,2.0,85,0.00,,,0.00,,2013-01-26 12:53:00,
2013-01-26 08:03:00,10.0,6.0,30.33,WNW,291,0.0,1.0,85,0.00,,,0.00,,2013-01-26 13:03:00,
2013-01-26 08:12:00,10.0,6.0,30.33,WNW,291,0.0,1.0,85,0.00,,,0.00,,2013-01-26 13:12:00,
2013-01-26 08:22:00,10.0,6.0,30.34,WNW,286,1.0,3.0,85,0.00,,,0.00,,2013-01-26 13:22:00,
2013-01-26 08:32:00,10.0,6.0,30.35,NW,309,2.0,3.0,85,0.00,,,0.00,,2013-01-26 13:32:00,
2013-01-26 08:42:00,10.0,6.0,30.35,NW,309,2.0,3.0,85,0.00,,,0.00,,2013-01-26 13:42:00,
2013-01-26 08:53:00,10.0,6.0,30.35,NW,309,0.0,1.0,84,0.00,,,0.00,,2013-01-26 13:53:00,
2013-01-26 09:02:00,11.0,7.0,30.36,WNW,297,0.0,1.0,84,0.00,,,0.00,,2013-01-26 14:02:00,
2013-01-26 09:11:00,11.0,7.0,30.36,WNW,297,0.0,1.0,84,0.00,,,0.00,,2013-01-26 14:11:00,
2013-01-26 09:21:00,12.0,8.0,30.36,WNW,283,1.0,2.0,84,0.00,,,0.00,,2013-01-26 14:21:00,
2013-01-26 09:32:00,13.0,9.0,30.37,WNW,295,2.0,4.0,83,0.00,,,0.00,,2013-01-26 14:32:00,
2013-01-26 09:43:00,13.0,9.0,30.37,WNW,295,2.0,4.0,83,0.00,,,0.00,,2013-01-26 14:43:00,
2013-01-26 09:53:00,14.0,9.0,30.37,NNW,342,4.0,6.0,80,0.00,,,0.00,,2013-01-26 14:53:00,
2013-01-26 10:03:00,15.0,10.0,30.37,North,352,4.0,7.0,80,0.00,,,0.00,,2013-01-26 15:03:00,
2013-01-26 10:12:00,15.0,10.0,30.37,North,352,4.0,7.0,80,0.00,,,0.00,,2013-01-26 15:12:00,
2013-01-26 10:22:00,16.0,10.0,30.38,NNW,328,5.0,7.0,77,0.00,,,0.00,,2013-01-26 15:22:00,
2013-01-26 10:32:00,16.0,9.0,30.39,North,360,4.0,6.0,75,0.00,,,0.00,,2013-01-26 15:32:00,
2013-01-26 10:43:00,16.0,9.0,30.39,North,360,4.0,6.0,75,0.00,,,0.00,,2013-01-26 15:43:00,
2013-01-26 10:53:00,17.0,10.0,30.39,North,350,5.0,8.0,74,0.00,,,0.00,,2013-01-26 15:53:00,
2013-01-26 11:02:00,18.0,11.0,30.39,NW,311,3.0,6.0,73,0.00,,,0.00,,2013-01-26 16:02:00,
2013-01-26 11:12:00,19.0,11.0,30.40,NNE,26,2.0,5.0,72,0.00,,,0.00,,2013-01-26 16:12:00,
2013-01-26 11:22:00,19.0,11.0,30.40,NNE,26,2.0,5.0,72,0.00,,,0.00,,2013-01-26 16:22:00,
2013-01-26 11:32:00,19.0,11.0,30.40,NNW,347,2.0,4.0,70,0.00,,,0.00,,2013-01-26 16:32:00,
2013-01-26 11:42:00,19.0,11.0,30.40,NNW,347,2.0,4.0,70,0.00,,,0.00,,2013-01-26 16:42:00,
2013-01-26 11:53:00,20.0,11.0,30.40,WNW,284,1.0,4.0,68,0.00,,,0.00,,2013-01-26 16:53:00,
2013-01-26 12:03:00,22.0,12.0,30.41,WNW,299,2.0,4.0,65,0.00,,,0.00,,2013-01-26 17:03:00,
2013-01-26 12:12:00,22.0,12.0,30.41,WNW,299,2.0,4.0,65,0.00,,,0.00,,2013-01-26 17:12:00,
2013-01-26 12:22:00,22.0,10.0,30.40,NNE,22,2.0,6.0,59,0.00,,,0.00,,2013-01-26 17:22:00,
2013-01-26 12:32:00,23.0,12.0,30.40,WNW,294,4.0,6.0,61,0.00,,,0.00,,2013-01-26 17:32:00,
2013-01-26 12:42:00,23.0,12.0,30.40,WNW,294,4.0,6.0,61,0.00,,,0.00,,2013-01-26 17:42:00,
2013-01-26 12:53:00,23.0,11.0,30.39,NNW,328,4.0,6.0,59,0.00,,,0.00,,2013-01-26 17:53:00,
2013-01-26 13:02:00,24.0,12.0,30.39,NW,324,1.0,6.0,60,0.00,,,0.00,,2013-01-26 18:02:00,
2013-01-26 13:12:00,24.0,12.0,30.39,NW,324,1.0,6.0,60,0.00,,,0.00,,2013-01-26 18:12:00,
2013-01-26 13:22:00,25.0,10.0,30.39,NW,308,2.0,6.0,53,0.00,,,0.00,,2013-01-26 18:22:00,
2013-01-26 13:33:00,25.0,9.0,30.38,NNE,22,3.0,6.0,51,0.00,,,0.00,,2013-01-26 18:33:00,
2013-01-26 13:42:00,25.0,9.0,30.38,NNE,22,3.0,6.0,51,0.00,,,0.00,,2013-01-26 18:42:00,
2013-01-26 13:52:00,25.0,9.0,30.38,SE,132,1.0,2.0,51,0.00,,,0.00,,2013-01-26 18:52:00,
2013-01-26 14:03:00,26.0,9.0,30.37,NW,308,3.0,6.0,49,0.00,,,0.00,,2013-01-26 19:03:00,
2013-01-26 14:12:00,26.0,9.0,30.37,NW,308,3.0,6.0,49,0.00,,,0.00,,2013-01-26 19:12:00,
2013-01-26 14:22:00,26.0,10.0,30.38,WNW,303,3.0,4.0,51,0.00,,,0.00,,2013-01-26 19:22:00,
2013-01-26 14:32:00,27.0,10.0,30.38,WNW,297,1.0,4.0,48,0.00,,,0.00,,2013-01-26 19:32:00,
2013-01-26 14:42:00,27.0,10.0,30.38,WNW,297,1.0,4.0,48,0.00,,,0.00,,2013-01-26 19:42:00,
2013-01-26 14:53:00,28.0,11.0,30.38,NW,305,2.0,6.0,48,0.00,,,0.00,,2013-01-26 19:53:00,
2013-01-26 15:02:00,28.0,10.0,30.39,WSW,248,1.0,5.0,47,0.00,,,0.00,,2013-01-26 20:02:00,
2013-01-26 15:11:00,28.0,10.0,30.39,WSW,248,1.0,5.0,47,0.00,,,0.00,,2013-01-26 20:11:00,
2013-01-26 15:21:00,28.0,11.0,30.38,SW,222,2.0,5.0,49,0.00,,,0.00,,2013-01-26 20:21:00,
2013-01-26 15:32:00,28.0,11.0,30.38,North,360,3.0,4.0,48,0.00,,,0.00,,2013-01-26 20:32:00,
2013-01-26 15:42:00,28.0,11.0,30.38,North,360,3.0,4.0,48,0.00,,,0.00,,2013-01-26 20:42:00,
2013-01-26 15:52:00,29.0,11.0,30.39,SSW,201,2.0,3.0,47,0.00,,,0.00,,2013-01-26 20:52:00,
2013-01-26 16:02:00,29.0,11.0,30.38,ENE,71,0.0,2.0,46,0.00,,,0.00,,2013-01-26 21:02:00,
2013-01-26 16:12:00,29.0,11.0,30.38,ENE,71,0.0,2.0,46,0.00,,,0.00,,2013-01-26 21:12:00,
2013-01-26 16:22:00,29.0,11.0,30.38,West,278,1.0,4.0,47,0.00,,,0.00,,2013-01-26 21:22:00,
2013-01-26 16:32:00,30.0,12.0,30.38,SSW,210,1.0,4.0,46,0.00,,,0.00,,2013-01-26 21:32:00,
2013-01-26 16:42:00,30.0,12.0,30.38,SSW,210,1.0,4.0,46,0.00,,,0.00,,2013-01-26 21:42:00,
2013-01-26 16:52:00,30.0,12.0,30.39,SSW,193,1.0,5.0,46,0.00,,,0.00,,2013-01-26 21:52:00,
2013-01-26 17:01:00,30.0,11.0,30.40,SE,138,0.0,3.0,45,0.00,,,0.00,,2013-01-26 22:01:00,
2013-01-26 17:11:00,30.0,11.0,30.40,SE,138,0.0,3.0,45,0.00,,,0.00,,2013-01-26 22:11:00,
2013-01-26 17:21:00,29.0,11.0,30.38,South,174,1.0,3.0,46,0.00,,,0.00,,2013-01-26 22:21:00,
2013-01-26 17:31:00,29.0,11.0,30.38,SE,136,0.0,1.0,46,0.00,,,0.00,,2013-01-26 22:31:00,
2013-01-26 17:42:00,29.0,11.0,30.38,SE,136,0.0,1.0,46,0.00,,,0.00,,2013-01-26 22:42:00,
2013-01-26 17:52:00,29.0,11.0,30.38,SE,136,0.0,1.0,46,0.00,,,0.00,,2013-01-26 22:52:00,
2013-01-26 18:01:00,29.0,11.0,30.38,SE,136,0.0,1.0,46,0.00,,,0.00,,2013-01-26 23:01:00,
2013-01-26 18:11:00,29.0,11.0,30.38,SE,136,0.0,1.0,46,0.00,,,0.00,,2013-01-26 23:11:00,
2013-01-26 23:22:00,24.0,18.0,30.41,East,87,4.0,6.0,79,0.00,,,0.00,,2013-01-27 04:22:00,
2013-01-26 23:32:00,24.0,18.0,30.40,ESE,105,4.0,7.0,79,0.00,,,0.00,,2013-01-27 04:32:00,
2013-01-26 23:42:00,24.0,18.0,30.40,ESE,105,4.0,7.0,79,0.00,,,0.00,,2013-01-27 04:42:00,
2013-01-26 23:52:00,24.0,19.0,30.40,East,97,2.0,7.0,80,0.00,,,0.00,,2013-01-27 04:52:00,